Time;durP1;ratioP1;P1;durP2;ratioP2;P2;SDS_P1;SDS_P2;PMS_P1;PMS_P2;Temp;Humidity;BMP_temperature;BMP_pressure;BME280_temperature;BME280_humidity;BME280_pressure;Samples;Min_cycle;Max_cycle;Signal;HPM_P1;HPM_P2
2021/12/29 00:00:44;;;;;;;1018.58;956.35;;;;;;;20.80;42.99;99929.88;4972619;28;20088;-81
2021/12/29 00:03:10;;;;;;;1020.80;958.28;;;;;;;20.80;42.97;99938.09;4988884;28;20582;-80
2021/12/29 00:05:35;;;;;;;1004.17;943.63;;;;;;;20.80;42.90;99936.16;4973947;28;20125;-81
2021/12/29 00:08:02;;;;;;;1016.78;955.08;;;;;;;20.80;42.91;99958.13;4973806;28;20479;-81
2021/12/29 00:10:27;;;;;;;1016.53;954.72;;;;;;;20.80;42.90;99971.84;4956205;28;20761;-81
2021/12/29 00:12:54;;;;;;;1018.22;956.05;;;;;;;20.79;42.61;99980.41;4973946;28;20034;-81
2021/12/29 00:15:25;;;;;;;1015.35;953.55;;;;;;;20.79;42.68;99994.94;4973992;28;20035;-81
2021/12/29 00:17:51;;;;;;;1011.10;949.67;;;;;;;20.79;42.74;100002.34;4973332;28;20448;-81
2021/12/29 00:20:19;;;;;;;1012.03;950.45;;;;;;;20.79;42.59;99999.59;4988753;28;20094;-80
2021/12/29 00:22:45;;;;;;;1021.13;958.83;;;;;;;20.78;42.57;100001.56;4973464;28;20061;-80
2021/12/29 00:25:12;;;;;;;1018.20;955.83;;;;;;;20.77;42.63;100005.44;4969323;28;20035;-80
2021/12/29 00:27:38;;;;;;;1021.42;958.88;;;;;;;20.78;42.40;100006.25;4969643;28;20535;-80
2021/12/29 00:30:06;;;;;;;1019.35;956.97;;;;;;;20.78;42.59;100011.72;4972211;28;20467;-80
2021/12/29 00:32:31;;;;;;;1019.75;957.60;;;;;;;20.77;42.71;100010.94;4973164;28;20041;-81
2021/12/29 00:34:56;;;;;;;1019.30;956.90;;;;;;;20.76;42.75;100012.06;4973174;28;20039;-81
2021/12/29 00:37:22;;;;;;;1021.20;958.67;;;;;;;20.75;42.82;100022.22;4988315;28;20066;-80
2021/12/29 00:39:47;;;;;;;1020.08;957.58;;;;;;;20.75;42.47;100014.00;4984359;28;20060;-81
2021/12/29 00:42:13;;;;;;;1016.03;954.33;;;;;;;20.76;42.65;100023.03;4972486;28;20403;-80
2021/12/29 00:44:38;;;;;;;1020.90;958.25;;;;;;;20.75;42.54;100041.44;4972429;28;20043;-81
2021/12/29 00:47:04;;;;;;;1021.42;958.83;;;;;;;20.75;42.69;100033.22;4977485;28;20074;-82
2021/12/29 00:49:35;;;;;;;1021.65;959.03;;;;;;;20.74;42.74;100039.03;4972906;28;20606;-81
2021/12/29 00:52:05;;;;;;;1021.30;958.70;;;;;;;20.75;42.73;100043.38;4972699;28;20035;-80
2021/12/29 00:54:30;;;;;;;1020.72;958.17;;;;;;;20.75;42.65;100048.88;4973109;28;20034;-83
2021/12/29 00:56:55;;;;;;;1018.05;955.85;;;;;;;20.73;42.48;100051.94;4971824;28;20439;-81
2021/12/29 00:59:21;;;;;;;1015.47;953.47;;;;;;;20.73;42.68;100051.13;4971866;28;20073;-80
2021/12/29 01:01:47;;;;;;;1012.90;951.15;;;;;;;20.73;42.90;100054.69;4971664;28;20050;-80
2021/12/29 01:04:14;;;;;;;1017.25;955.13;;;;;;;20.73;42.80;100057.44;4973072;28;20126;-80
2021/12/29 01:06:40;;;;;;;1020.47;957.90;;;;;;;20.72;42.45;100061.31;4973062;28;20035;-80
2021/12/29 01:09:05;;;;;;;1024.22;961.10;;;;;;;20.73;42.54;100065.66;4972800;28;20034;-80
2021/12/29 01:11:31;;;;;;;1018.67;956.30;;;;;;;20.72;42.74;100086.00;4971192;28;20044;-80
2021/12/29 01:13:56;;;;;;;1017.92;955.70;;;;;;;20.71;42.51;100081.66;4973530;28;20361;-81
2021/12/29 01:19:01;;;;;;;1013.38;951.40;;;;;;;20.71;42.24;100089.91;4986805;28;20061;-81
2021/12/29 01:21:27;;;;;;;1016.38;954.33;;;;;;;20.71;42.51;100083.59;4971870;28;20187;-80
2021/12/29 01:23:53;;;;;;;1016.75;954.60;;;;;;;20.70;42.37;100095.72;4972797;28;20110;-80
2021/12/29 01:26:18;;;;;;;1029.85;965.38;;;;;;;20.69;42.39;100114.13;4971698;28;20044;-80
2021/12/29 01:28:44;;;;;;;1019.35;956.72;;;;;;;20.69;42.54;100121.56;4964074;28;20035;-80
2021/12/29 01:31:09;;;;;;;1014.20;951.67;;;;;;;20.69;42.37;100132.53;4971715;28;20046;-81
2021/12/29 01:33:35;;;;;;;1017.75;955.00;;;;;;;20.68;42.57;100139.13;4971608;28;20093;-81
2021/12/29 01:36:01;;;;;;;1024.75;961.10;;;;;;;20.68;42.53;100161.88;4972729;28;20038;-80
2021/12/29 01:38:26;;;;;;;1014.55;952.17;;;;;;;20.67;42.59;100152.06;4970279;28;20058;-82
2021/12/29 01:40:51;;;;;;;1016.10;953.72;;;;;;;20.69;42.53;100162.72;4970734;28;20082;-80
2021/12/29 01:43:18;;;;;;;1019.55;956.67;;;;;;;20.67;42.37;100165.78;4955040;28;20097;-80
2021/12/29 01:45:43;;;;;;;1024.28;960.85;;;;;;;20.66;42.29;100164.16;4982719;28;20042;-79
2021/12/29 01:48:09;;;;;;;1022.60;959.47;;;;;;;20.66;42.48;100180.63;4972483;28;20484;-80
2021/12/29 01:50:35;;;;;;;1008.92;947.35;;;;;;;20.67;42.83;100178.69;4972345;28;20034;-80
2021/12/29 01:53:08;;;;;;;1015.38;953.05;;;;;;;20.66;42.35;100185.28;4983346;28;20042;-80
2021/12/29 01:55:35;;;;;;;1016.00;953.63;;;;;;;20.66;42.27;100183.38;4987700;28;20038;-79
2021/12/29 01:58:01;;;;;;;1025.93;962.03;;;;;;;20.65;42.56;100180.94;4978063;28;20042;-80
2021/12/29 02:00:29;;;;;;;1025.00;961.22;;;;;;;20.64;42.58;100187.59;4973067;28;20392;-81
2021/12/29 02:02:55;;;;;;;1025.78;961.78;;;;;;;20.65;42.43;100194.66;4972883;28;20101;-80
2021/12/29 02:05:21;;;;;;;1030.95;966.75;;;;;;;20.64;42.49;100198.56;4970126;28;20058;-80
2021/12/29 02:07:46;;;;;;;1026.10;962.60;;;;;;;20.64;42.69;100195.81;4972634;28;20452;-80
2021/12/29 02:10:15;;;;;;;1028.43;964.28;;;;;;;20.63;42.34;100192.25;4972246;28;20090;-80
2021/12/29 02:12:41;;;;;;;1027.65;963.63;;;;;;;20.62;42.53;100198.88;4966071;28;20121;-80
2021/12/29 02:15:08;;;;;;;1026.05;962.20;;;;;;;20.62;42.61;100200.81;4972554;28;20034;-80
2021/12/29 02:17:33;;;;;;;1031.70;966.97;;;;;;;20.62;42.72;100201.63;4970874;28;20043;-80
2021/12/29 02:20:01;;;;;;;1035.32;970.22;;;;;;;20.61;42.54;100213.69;4971933;28;20479;-80
2021/12/29 02:22:41;;;;;;;1027.15;963.15;;;;;;;20.62;42.51;100211.78;4971483;28;22555;-80
2021/12/29 02:27:52;;;;;;;1027.10;962.88;;;;;;;20.61;42.47;100221.13;4971914;28;20039;-80
2021/12/29 02:30:22;;;;;;;1021.83;958.13;;;;;;;20.60;42.42;100217.59;4971577;28;20034;-80
2021/12/29 02:32:49;;;;;;;1025.38;961.53;;;;;;;20.59;42.45;100218.72;4971815;28;20046;-81
2021/12/29 02:35:15;;;;;;;1019.05;956.08;;;;;;;20.59;42.76;100226.97;4972400;28;20031;-80
2021/12/29 02:37:41;;;;;;;1009.20;947.35;;;;;;;20.59;42.76;100226.13;4973221;28;20054;-80
2021/12/29 02:40:08;;;;;;;1014.45;951.85;;;;;;;20.60;42.57;100227.75;4971865;28;20062;-81
2021/12/29 02:42:40;;;;;;;1008.85;947.10;;;;;;;20.59;42.49;100229.72;4974611;28;20471;-80
2021/12/29 02:45:08;;;;;;;1009.80;947.97;;;;;;;20.58;42.39;100219.84;4974057;28;20039;-82
2021/12/29 02:47:33;;;;;;;1014.03;951.72;;;;;;;20.58;42.81;100217.09;4974189;28;20031;-80
2021/12/29 02:49:58;;;;;;;1002.63;941.53;;;;;;;20.59;42.58;100217.91;4975220;28;20042;-80
2021/12/29 02:52:24;;;;;;;1001.75;940.85;;;;;;;20.58;42.84;100219.03;4974843;28;20031;-80
2021/12/29 02:54:51;;;;;;;1013.95;951.65;;;;;;;20.57;42.77;100218.25;4975865;28;20117;-80
2021/12/29 02:57:16;;;;;;;1005.53;944.15;;;;;;;20.58;42.97;100232.75;4974052;28;20539;-80
2021/12/29 02:59:42;;;;;;;1011.38;949.13;;;;;;;20.58;42.66;100232.75;4973721;28;20121;-81
2021/12/29 03:02:07;;;;;;;1016.85;954.17;;;;;;;20.57;42.71;100245.69;4975349;28;20042;-81
2021/12/29 03:04:33;;;;;;;1006.25;944.97;;;;;;;20.57;42.73;100244.88;4973240;28;20043;-81
2021/12/29 03:06:58;;;;;;;1014.28;952.17;;;;;;;20.57;42.92;100253.91;4976127;28;20094;-81
2021/12/29 03:09:24;;;;;;;1011.92;949.90;;;;;;;20.57;42.56;100255.84;4972173;28;20038;-80
2021/12/29 03:11:49;;;;;;;1014.58;952.40;;;;;;;20.56;42.79;100260.50;4957381;28;20027;-80
2021/12/29 03:14:15;;;;;;;1016.22;953.65;;;;;;;20.56;42.83;100267.94;4974643;28;20433;-80
2021/12/29 03:16:40;;;;;;;1002.30;941.63;;;;;;;20.56;43.02;100268.75;4973678;28;20928;-81
2021/12/29 03:19:06;;;;;;;1005.47;944.35;;;;;;;20.56;42.78;100276.16;4974522;28;20030;-81
2021/12/29 03:21:34;;;;;;;1012.63;950.50;;;;;;;20.56;42.76;100289.88;4974605;28;20031;-80
2021/12/29 03:24:00;;;;;;;1013.67;951.42;;;;;;;20.55;42.65;100286.34;4974090;28;20038;-81
2021/12/29 03:26:26;;;;;;;993.05;933.17;;;;;;;20.55;42.58;100289.09;4974405;28;20043;-80
2021/12/29 03:28:51;;;;;;;998.72;938.05;;;;;;;20.55;42.42;100291.03;4974754;28;20039;-80
2021/12/29 03:31:21;;;;;;;994.33;934.50;;;;;;;20.55;42.71;100285.53;4984207;28;20061;-81
2021/12/29 03:33:46;;;;;;;991.13;931.67;;;;;;;20.53;42.68;100281.13;4972449;28;20042;-83
2021/12/29 03:36:13;;;;;;;995.72;935.72;;;;;;;20.55;42.55;100291.03;4975090;28;20475;-80
2021/12/29 03:38:40;;;;;;;992.40;932.78;;;;;;;20.54;42.57;100295.69;4974044;28;20051;-80
2021/12/29 03:41:09;;;;;;;994.30;934.35;;;;;;;20.54;42.68;100298.44;4972649;28;20467;-80
2021/12/29 03:43:35;;;;;;;997.25;936.92;;;;;;;20.53;42.78;100305.81;4967678;28;20043;-80
2021/12/29 03:46:03;;;;;;;995.72;935.85;;;;;;;20.53;42.73;100305.81;4974684;28;20054;-80
2021/12/29 03:48:30;;;;;;;996.78;936.88;;;;;;;20.53;42.64;100307.78;4972638;28;20121;-80
2021/12/29 03:50:57;;;;;;;995.42;935.78;;;;;;;20.52;42.90;100309.72;4974071;28;20134;-80
2021/12/29 03:53:23;;;;;;;996.60;936.53;;;;;;;20.52;42.94;100312.47;4974691;28;20031;-80
2021/12/29 03:55:50;;;;;;;986.80;928.63;;;;;;;20.52;42.46;100322.63;4974088;28;20038;-80
2021/12/29 03:58:17;;;;;;;998.22;938.38;;;;;;;20.52;42.47;100328.91;4974246;28;20062;-80
2021/12/29 04:00:43;;;;;;;998.75;938.72;;;;;;;20.51;42.50;100327.31;4973565;28;20106;-80
2021/12/29 04:03:08;;;;;;;1000.05;939.80;;;;;;;20.51;42.57;100321.00;4974630;28;20118;-81
2021/12/29 04:05:34;;;;;;;998.28;938.60;;;;;;;20.52;42.71;100323.44;4973002;28;20066;-80
2021/12/29 04:08:01;;;;;;;992.53;933.20;;;;;;;20.50;42.70;100314.72;4974580;28;20058;-80
2021/12/29 04:10:28;;;;;;;991.70;932.72;;;;;;;20.51;42.41;100321.00;4973072;28;20039;-79
2021/12/29 04:12:53;;;;;;;999.13;939.20;;;;;;;20.50;42.41;100322.13;4973550;28;20046;-80
2021/12/29 04:15:18;;;;;;;999.13;938.97;;;;;;;20.50;42.51;100319.38;4973640;28;20039;-80
2021/12/29 04:17:46;;;;;;;1000.63;940.47;;;;;;;20.49;42.42;100324.06;4975614;28;20543;-80
2021/12/29 04:23:08;;;;;;;1002.33;941.85;;;;;;;20.49;42.56;100331.50;4973825;28;20060;-80
2021/12/29 04:25:36;;;;;;;996.67;937.22;;;;;;;20.49;42.71;100342.47;4973652;28;20038;-81
2021/12/29 04:28:03;;;;;;;;;;;;;;;20.46;42.72;100337.59;4960794;28;20039;-80
2021/12/29 04:30:30;;;;;;;987.92;929.85;;;;;;;20.46;42.62;100337.59;4974092;28;20425;-80
2021/12/29 04:32:55;;;;;;;999.22;939.58;;;;;;;20.45;42.55;100350.53;4972416;28;20494;-81
2021/12/29 04:35:22;;;;;;;994.05;934.85;;;;;;;20.45;42.52;100355.22;4992270;28;20030;-81
2021/12/29 04:37:49;;;;;;;994.60;935.35;;;;;;;20.44;42.25;100365.38;4973520;28;20097;-81
2021/12/29 04:40:16;;;;;;;997.35;937.78;;;;;;;20.45;42.77;100356.00;4972478;28;20047;-80
2021/12/29 04:42:42;;;;;;;988.58;930.13;;;;;;;20.46;42.59;100370.53;4972822;28;20089;-80
2021/12/29 04:45:08;;;;;;;994.10;934.83;;;;;;;20.44;42.51;100381.84;4988453;28;20043;-80
2021/12/29 04:47:38;;;;;;;988.10;929.33;;;;;;;20.44;42.51;100384.59;4970665;28;20042;-80
2021/12/29 04:50:07;;;;;;;996.75;937.08;;;;;;;20.44;42.80;100389.28;4972412;28;20038;-81
2021/12/29 04:52:33;;;;;;;1004.40;943.53;;;;;;;20.44;42.62;100384.59;4971923;28;20042;-80
2021/12/29 04:54:58;;;;;;;999.08;939.08;;;;;;;20.44;42.46;100387.31;4973154;28;20105;-81
2021/12/29 04:57:24;;;;;;;1004.33;943.50;;;;;;;20.44;42.49;100392.00;4972763;28;20087;-81
2021/12/29 04:59:49;;;;;;;1008.80;947.40;;;;;;;20.43;42.67;100393.91;4972650;28;20041;-81
2021/12/29 05:02:15;;;;;;;1005.80;944.88;;;;;;;20.44;42.46;100397.50;4973100;28;20039;-81
2021/12/29 05:04:56;;;;;;;1001.33;941.05;;;;;;;20.43;42.41;100391.19;4971003;28;20039;-81
2021/12/29 05:10:06;;;;;;;1002.88;942.38;;;;;;;20.43;42.44;100384.88;4972638;28;20098;-81
2021/12/29 05:12:31;;;;;;;1000.90;940.75;;;;;;;20.41;42.59;100379.75;4981126;28;20039;-81
2021/12/29 05:14:56;;;;;;;1003.47;942.90;;;;;;;20.42;42.58;100386.03;4987439;28;20441;-81
2021/12/29 05:17:22;;;;;;;993.08;933.67;;;;;;;20.42;42.29;100391.50;4972786;28;20039;-81
2021/12/29 05:19:47;;;;;;;1002.50;942.00;;;;;;;20.41;42.65;100379.75;4974690;28;20046;-81
2021/12/29 05:22:13;;;;;;;1001.55;941.08;;;;;;;20.41;42.63;100387.13;4972897;28;20058;-81
2021/12/29 05:24:38;;;;;;;996.42;936.53;;;;;;;20.42;42.47;100391.50;4980445;28;20062;-81
2021/12/29 05:27:04;;;;;;;1000.22;939.97;;;;;;;20.40;42.40;100397.31;4964452;28;20047;-80
2021/12/29 05:29:29;;;;;;;1007.10;945.85;;;;;;;20.40;42.39;100400.06;4971832;28;20058;-80
2021/12/29 05:31:55;;;;;;;999.10;938.92;;;;;;;20.40;42.48;100413.75;4972322;28;20054;-82
2021/12/29 05:34:20;;;;;;;1020.40;957.47;;;;;;;20.39;42.55;100412.16;4952169;28;20046;-82
2021/12/29 05:36:46;;;;;;;1010.60;948.95;;;;;;;20.40;42.39;100411.03;4980658;28;20495;-81
2021/12/29 05:39:12;;;;;;;1011.55;949.72;;;;;;;20.40;42.58;100408.28;4970373;28;20058;-80
2021/12/29 05:41:37;;;;;;;1013.75;951.53;;;;;;;20.40;42.39;100410.22;4970105;28;20039;-80
2021/12/29 05:44:03;;;;;;;1020.05;957.03;;;;;;;20.39;42.66;100408.63;4967986;28;20039;-80
2021/12/29 05:46:28;;;;;;;1004.85;943.80;;;;;;;20.39;42.37;100411.34;4957757;28;20030;-80
2021/12/29 05:48:54;;;;;;;1008.30;946.78;;;;;;;20.39;42.43;100408.63;4981828;28;20043;-80
2021/12/29 05:51:19;;;;;;;1011.28;949.25;;;;;;;20.38;42.27;100410.53;4976635;28;20035;-80
2021/12/29 05:53:44;;;;;;;1005.08;943.83;;;;;;;20.38;42.24;100413.28;4970870;28;20098;-80
2021/12/29 05:56:10;;;;;;;1004.28;943.33;;;;;;;20.38;42.42;100412.47;4955390;28;20117;-80
2021/12/29 05:58:36;;;;;;;1006.40;945.30;;;;;;;20.38;42.53;100404.22;4972141;28;20035;-81
2021/12/29 06:01:03;;;;;;;995.53;935.92;;;;;;;20.38;42.69;100412.47;4971334;28;20046;-81
2021/12/29 06:03:28;;;;;;;1005.88;944.90;;;;;;;20.37;42.42;100419.09;4968335;28;20110;-81
2021/12/29 06:05:54;;;;;;;1004.15;943.50;;;;;;;20.36;42.19;100414.72;4958770;28;20906;-81
2021/12/29 06:08:19;;;;;;;1004.83;944.03;;;;;;;20.37;42.53;100421.84;4936126;28;20539;-81
2021/12/29 06:10:45;;;;;;;1007.40;946.17;;;;;;;20.36;42.68;100432.00;4970426;28;20472;-80
2021/12/29 06:13:10;;;;;;;1004.15;943.28;;;;;;;20.36;42.61;100436.66;4967864;28;20046;-81
2021/12/29 06:15:36;;;;;;;999.00;938.85;;;;;;;20.36;42.61;100439.41;4977528;28;20502;-81
2021/12/29 06:18:02;;;;;;;999.25;939.20;;;;;;;20.35;42.30;100452.31;4975415;28;20041;-80
2021/12/29 06:20:27;;;;;;;1002.45;942.00;;;;;;;20.35;42.54;100443.28;4964475;28;20051;-83
2021/12/29 06:22:53;;;;;;;1004.33;943.65;;;;;;;20.35;42.56;100446.03;4948804;29;20468;-82
2021/12/29 06:25:18;;;;;;;1012.83;950.90;;;;;;;20.35;42.43;100444.09;4965385;28;20122;-82
2021/12/29 06:27:44;;;;;;;997.47;937.65;;;;;;;20.35;42.64;100437.78;4975148;28;20089;-81
2021/12/29 06:30:12;;;;;;;992.65;933.55;;;;;;;20.35;42.76;100437.78;4974763;28;20039;-81
2021/12/29 06:32:38;;;;;;;1008.20;943.97;;;;;;;20.35;42.81;100448.75;4976744;28;20150;-86
2021/12/29 06:35:06;;;;;;;1002.47;940.00;;;;;;;20.36;43.10;100455.84;4961119;28;20178;-84
2021/12/29 06:37:32;;;;;;;996.92;936.08;;;;;;;20.35;43.00;100446.81;4973815;28;20034;-85
2021/12/29 06:39:57;;;;;;;1000.90;939.45;;;;;;;20.36;43.34;100451.19;4978376;28;20051;-82
2021/12/29 06:42:23;;;;;;;1000.38;938.65;;;;;;;20.36;43.25;100462.19;4974990;28;20484;-82
2021/12/29 06:44:48;;;;;;;1002.30;940.80;;;;;;;20.37;43.23;100463.78;4984595;28;20065;-82
2021/12/29 06:47:15;;;;;;;998.33;937.22;;;;;;;20.37;43.51;100468.47;4979120;28;20042;-82
2021/12/29 06:49:41;;;;;;;1009.80;947.97;;;;;;;20.38;43.18;100468.13;4974459;28;20387;-84
2021/12/29 06:52:08;;;;;;;1011.55;949.33;;;;;;;20.37;43.01;100461.03;4974285;28;20494;-83
2021/12/29 06:54:36;;;;;;;1014.08;951.40;;;;;;;20.37;43.55;100452.81;4971887;28;20031;-82
2021/12/29 06:57:02;;;;;;;;;;;;;;;20.36;43.42;100464.09;4976540;28;20035;-82
2021/12/29 06:59:28;;;;;;;1015.60;953.08;;;;;;;20.37;43.29;100466.53;4973722;28;19914;-81
2021/12/29 07:01:54;;;;;;;1013.30;951.45;;;;;;;20.37;43.43;100465.72;4976301;28;20039;-82
2021/12/29 07:04:19;;;;;;;1017.17;954.72;;;;;;;20.36;43.47;100464.09;4976383;28;20042;-81
2021/12/29 07:06:45;;;;;;;1010.83;948.80;;;;;;;20.36;43.23;100473.16;4974748;28;20051;-80
2021/12/29 07:09:10;;;;;;;1012.65;950.75;;;;;;;20.37;42.96;100479.44;4975594;28;20042;-81
2021/12/29 07:11:37;;;;;;;1013.28;951.15;;;;;;;20.37;43.30;100476.69;4975366;28;20117;-83
2021/12/29 07:14:04;;;;;;;1011.88;949.63;;;;;;;20.36;43.09;100481.38;4974117;28;20047;-83
2021/12/29 07:16:31;;;;;;;1013.83;951.92;;;;;;;20.37;43.08;100479.44;4974605;28;20817;-81
2021/12/29 07:18:57;;;;;;;1016.45;954.25;;;;;;;20.37;43.35;100490.41;4977580;28;20063;-82
2021/12/29 07:21:22;;;;;;;1006.30;945.42;;;;;;;20.36;43.15;100497.84;4983089;28;20031;-83
2021/12/29 07:23:48;;;;;;;997.63;937.70;;;;;;;20.36;43.26;100506.06;4971021;28;20034;-82
2021/12/29 07:26:13;;;;;;;999.35;939.40;;;;;;;20.36;43.25;100506.06;4974383;28;20449;-83
2021/12/29 07:28:39;;;;;;;996.15;936.70;;;;;;;20.36;43.45;100506.06;4972987;28;20027;-83
2021/12/29 07:31:05;;;;;;;999.22;939.05;;;;;;;20.36;43.08;100511.56;4974843;28;20034;-83
2021/12/29 07:33:33;;;;;;;992.22;933.13;;;;;;;20.36;43.10;100516.19;4972350;28;20439;-82
2021/12/29 07:35:58;;;;;;;999.22;939.35;;;;;;;20.35;42.91;100512.66;4964731;28;20038;-87
2021/12/29 07:38:24;;;;;;;998.85;939.10;;;;;;;20.35;43.34;100512.66;4954999;28;20526;-86
2021/12/29 07:40:49;;;;;;;1001.20;941.00;;;;;;;20.36;43.45;100502.50;4967743;28;20105;-82
2021/12/29 07:43:15;;;;;;;1006.65;945.65;;;;;;;20.36;43.39;100511.56;4968988;28;20031;-83
2021/12/29 07:45:42;;;;;;;1000.97;940.85;;;;;;;20.37;43.84;100518.66;4971274;28;20023;-81
2021/12/29 07:48:09;;;;;;;998.30;938.47;;;;;;;20.38;43.71;100514.75;4972684;28;20499;-83
2021/12/29 07:50:36;;;;;;;1004.80;943.72;;;;;;;20.38;43.57;100511.22;4987090;28;20198;-83
2021/12/29 07:53:01;;;;;;;1005.38;944.33;;;;;;;20.39;44.16;100507.38;4971935;28;20027;-82
2021/12/29 07:55:27;;;;;;;1007.40;946.47;;;;;;;20.39;43.83;100508.19;4970896;28;20554;-83
2021/12/29 07:57:53;;;;;;;1007.83;946.58;;;;;;;20.40;43.78;100508.97;4972104;28;20102;-87
2021/12/29 08:00:18;;;;;;;1006.05;944.63;;;;;;;20.41;44.41;100510.59;4968157;28;20134;-83
2021/12/29 08:02:44;;;;;;;1016.90;954.25;;;;;;;20.41;44.58;100508.69;4969733;28;20097;-84
2021/12/29 08:05:11;;;;;;;1010.90;949.15;;;;;;;20.42;44.44;100513.03;4968682;28;20611;-82
2021/12/29 08:07:37;;;;;;;1019.33;956.45;;;;;;;20.43;44.60;100517.38;4969091;28;20850;-82
2021/12/29 08:10:03;;;;;;;1012.92;950.78;;;;;;;20.43;44.66;100517.38;4970245;28;20086;-86
2021/12/29 08:12:29;;;;;;;1011.58;949.85;;;;;;;20.44;44.96;100507.25;4953590;28;20088;-89
2021/12/29 08:14:54;;;;;;;1012.03;950.22;;;;;;;20.44;44.76;100510.78;4968348;28;20027;-83
2021/12/29 08:17:20;;;;;;;1014.08;952.25;;;;;;;20.46;44.75;100503.06;4984913;28;20085;-86
2021/12/29 08:19:45;;;;;;;1008.05;946.88;;;;;;;20.47;44.79;100514.84;4969049;28;20035;-86
2021/12/29 08:22:13;;;;;;;1003.60;942.65;;;;;;;20.47;44.57;100520.31;4967634;28;20036;-85
2021/12/29 08:24:39;;;;;;;1013.65;951.70;;;;;;;20.49;44.85;100529.06;4969369;28;20022;-84
2021/12/29 08:27:04;;;;;;;1008.80;947.30;;;;;;;20.50;44.95;100536.16;4966748;28;20786;-83
2021/12/29 08:29:30;;;;;;;1001.17;940.63;;;;;;;20.53;44.76;100538.25;4969134;28;20058;-83
2021/12/29 08:31:57;;;;;;;1007.10;945.95;;;;;;;20.55;45.01;100530.56;4968736;28;20035;-83
2021/12/29 08:34:24;;;;;;;1009.50;947.90;;;;;;;20.59;44.72;100525.22;4969139;28;20523;-81
2021/12/29 08:36:50;;;;;;;1005.08;944.22;;;;;;;20.62;44.78;100522.69;4966007;28;20042;-81
2021/12/29 08:39:18;;;;;;;1002.45;941.92;;;;;;;20.65;44.87;100516.56;4961580;28;20086;-83
2021/12/29 08:41:48;;;;;;;1008.88;947.50;;;;;;;20.69;44.66;100514.81;4973575;28;20074;-84
2021/12/29 08:44:13;;;;;;;1009.05;947.40;;;;;;;20.73;44.97;100514.97;4962500;28;20118;-82
2021/12/29 08:46:39;;;;;;;1006.90;945.75;;;;;;;20.77;45.10;100512.44;4965569;28;20392;-83
2021/12/29 08:49:05;;;;;;;1011.88;949.90;;;;;;;20.81;45.04;100524.38;4962174;28;20039;-86
2021/12/29 08:51:31;;;;;;;1001.67;941.15;;;;;;;20.83;45.09;100525.66;4966024;28;20061;-81
2021/12/29 08:53:57;;;;;;;1005.40;944.53;;;;;;;20.87;44.91;100526.66;4963214;28;20062;-82
2021/12/29 08:56:24;;;;;;;1003.85;942.95;;;;;;;20.90;44.81;100525.22;4940952;28;20039;-83
2021/12/29 08:58:50;;;;;;;1007.35;946.03;;;;;;;20.93;45.18;100528.13;4948516;28;20108;-84
2021/12/29 09:01:15;;;;;;;1004.67;943.72;;;;;;;20.96;45.03;100523.94;4948755;28;20876;-86
2021/12/29 09:03:42;;;;;;;998.80;938.70;;;;;;;20.98;44.85;100510.72;4965713;28;20031;-82
2021/12/29 09:06:08;;;;;;;1006.78;945.47;;;;;;;21.01;44.57;100510.06;4966649;28;20521;-83
2021/12/29 09:08:33;;;;;;;998.93;938.27;;;;;;;21.05;44.80;100504.75;4964193;28;20555;-83
2021/12/29 09:10:59;;;;;;;1000.90;940.22;;;;;;;21.08;44.95;100504.13;4963254;28;20263;-83
2021/12/29 09:13:24;;;;;;;993.50;934.00;;;;;;;21.10;44.96;100505.41;4969492;28;20175;-82
2021/12/29 09:15:53;;;;;;;997.20;936.95;;;;;;;21.12;44.70;100500.41;4965974;28;20042;-82
2021/12/29 09:18:19;;;;;;;999.63;939.30;;;;;;;21.15;44.72;100502.53;4968045;28;20043;-82
2021/12/29 09:20:46;;;;;;;1005.38;944.10;;;;;;;21.18;44.97;100504.63;4964092;28;20054;-83
2021/12/29 09:23:14;;;;;;;1001.92;941.28;;;;;;;21.21;44.83;100502.38;4963674;28;20043;-83
2021/12/29 09:25:41;;;;;;;1002.35;940.92;;;;;;;21.23;44.63;100502.88;4969487;28;20031;-86
2021/12/29 09:28:09;;;;;;;1007.97;946.28;;;;;;;21.25;44.73;100509.66;4971139;28;20097;-84
2021/12/29 09:30:37;;;;;;;1008.28;946.20;;;;;;;21.27;44.97;100512.06;4966982;28;20071;-82
2021/12/29 09:33:04;;;;;;;1008.30;946.47;;;;;;;21.30;44.99;100505.94;4965950;28;20050;-84
2021/12/29 09:35:30;;;;;;;1017.47;954.30;;;;;;;21.31;44.63;100502.06;4967141;28;20047;-83
2021/12/29 09:37:56;;;;;;;1013.45;950.78;;;;;;;21.32;44.57;100504.50;4965569;28;20030;-82
2021/12/29 09:40:22;;;;;;;1020.33;956.92;;;;;;;21.34;44.57;100507.75;4963048;28;20069;-81
2021/12/29 09:42:50;;;;;;;1010.42;947.65;;;;;;;21.35;44.73;100512.09;4967044;28;20063;-81
2021/12/29 09:45:16;;;;;;;999.87;939.10;;;;;;;21.38;44.49;100510.66;4964084;28;20049;-82
2021/12/29 09:47:42;;;;;;;1000.10;939.50;;;;;;;21.40;44.46;100500.19;4962927;28;20031;-82
2021/12/29 09:50:10;;;;;;;999.58;938.65;;;;;;;21.41;44.78;100492.72;4967254;28;20039;-82
2021/12/29 09:52:36;;;;;;;1003.70;942.20;;;;;;;21.43;44.63;100496.78;4963450;28;20035;-82
2021/12/29 09:55:04;;;;;;;1007.33;945.25;;;;;;;21.44;44.59;100498.38;4960628;28;20061;-82
2021/12/29 09:57:32;;;;;;;1013.30;950.58;;;;;;;21.45;44.55;100500.03;4933452;28;20035;-82
2021/12/29 09:59:57;;;;;;;1014.03;951.20;;;;;;;21.46;44.03;100507.13;4968139;28;20515;-81
2021/12/29 10:02:23;;;;;;;1007.88;945.65;;;;;;;21.46;44.17;100496.13;4966872;28;20039;-82
2021/12/29 10:04:48;;;;;;;1007.42;945.45;;;;;;;21.43;43.91;100502.28;4968140;28;20570;-81
2021/12/29 10:07:16;;;;;;;1014.15;951.30;;;;;;;21.41;43.76;100501.78;4983012;28;20476;-85
2021/12/29 10:09:42;;;;;;;1013.83;950.95;;;;;;;21.38;44.01;100499.66;4966088;28;20034;-86
2021/12/29 10:12:10;;;;;;;1017.80;954.47;;;;;;;21.34;43.66;100494.00;4950490;28;20043;-80
2021/12/29 10:14:36;;;;;;;1011.80;949.13;;;;;;;21.33;44.17;100502.56;4967490;28;20042;-80
2021/12/29 10:17:09;;;;;;;1012.40;949.63;;;;;;;21.30;43.75;100490.28;4966720;28;20031;-80
2021/12/29 10:19:37;;;;;;;1015.10;952.10;;;;;;;21.28;44.20;100481.53;4967711;28;20043;-80
2021/12/29 10:22:03;;;;;;;1012.42;949.67;;;;;;;21.26;43.96;100470.06;4967594;28;20034;-80
2021/12/29 10:24:28;;;;;;;1005.03;943.58;;;;;;;21.24;43.90;100464.06;4967070;28;20058;-81
2021/12/29 10:26:56;;;;;;;1013.10;950.83;;;;;;;21.24;44.05;100471.50;4966953;28;20506;-80
2021/12/29 10:29:22;;;;;;;1019.05;955.55;;;;;;;21.23;43.94;100486.38;4967563;28;20260;-82
2021/12/29 10:31:57;;;;;;;1014.58;951.72;;;;;;;21.22;44.26;100479.25;4982219;28;20482;-82
2021/12/29 10:34:26;;;;;;;1010.58;948.17;;;;;;;21.22;43.93;100474.59;4967659;28;20046;-82
2021/12/29 10:36:58;;;;;;;1014.13;951.25;;;;;;;21.21;44.13;100455.66;4966863;28;20844;-82
2021/12/29 10:39:26;;;;;;;1015.72;952.65;;;;;;;21.20;44.44;100445.81;4966553;28;20696;-82
2021/12/29 10:42:03;;;;;;;1021.35;957.67;;;;;;;21.20;44.12;100451.31;4966853;28;20417;-81
2021/12/29 10:44:32;;;;;;;1009.97;947.70;;;;;;;21.18;44.02;100449.69;4967997;28;20070;-81
2021/12/29 10:47:01;;;;;;;1015.85;953.08;;;;;;;21.17;43.76;100439.84;4963262;28;20035;-82
2021/12/29 10:49:31;;;;;;;1013.42;950.90;;;;;;;21.15;43.95;100444.84;4968051;28;20038;-83
2021/12/29 10:51:59;;;;;;;1015.53;952.75;;;;;;;21.16;43.97;100464.88;4965575;28;20039;-83
2021/12/29 10:54:27;;;;;;;1017.70;954.63;;;;;;;21.15;44.12;100477.78;4965377;28;20027;-82
2021/12/29 10:57:01;;;;;;;1020.70;957.17;;;;;;;21.15;44.22;100479.75;4964709;28;20027;-80